Meteo Giornale » Osservazioni meteo Italia » Treviso-S Angelo

ore: 00:50 - Osservazioni Meteo Treviso-S Angelo
Lat. 45° 39' N Lon. 12° 11' E Alt. 18 metri s.l.m.

nuvoloso Europe/Rome

22 °C

Nuvoloso

Temp. 24 Ore

21 °C

31 °C

Nord

3.7 Km/h

Dew point 16 °C

Umidità 68 %

Visibilità  10 Km

Il sole sorge alle ore 06:13

Il sole tramonta alle ore 20:17

Data e Ora Cielo e Fenomeni T °C DP °C Um. % Pres. hPa Vis. km Vento km/h
Oggi h: 00:50 nuvoloso Nuvoloso 22 16 68 1015 10 N 3.7
Oggi h: 00:20 poco_nuvoloso Poco Nuvoloso 21 17 77 1015 10 N 5.5
Ieri h: 23:50 sereno Sereno 22 17 73 1014 10 N 1.8
Ieri h: 23:20 sereno Sereno 22 17 73 1014 10 N 1.8
Ieri h: 22:50 sereno Sereno 24 17 64 1014 10 N 3.7
Ieri h: 22:20 sereno Sereno 23 17 68 1014 10 N 1.8
Ieri h: 21:50 sereno Sereno 26 16 54 1014 10 N 3.7
Ieri h: 21:20 sereno Sereno 25 16 57 1014 10 N 3.7
Ieri h: 20:50 sereno Sereno 25 16 57 1014 10 N 3.7
Ieri h: 20:20 sereno Sereno 27 16 50 1013 10 N 5.5
Ieri h: 19:50 sereno Sereno 28 15 45 1013 10 N 5.5
Ieri h: 19:20 sereno Sereno 29 14 39 1014 10 S 7.4
Ieri h: 18:50 sereno Sereno 29 15 42 1014 10 S/SE 9.3
Ieri h: 18:20 sereno Sereno 30 12 33 1014 10 E/SE 7.4
Ieri h: 17:50 sereno Sereno 31 13 33 1014 10 N 5.5
Ieri h: 17:20 sereno Sereno 31 12 31 1014 10 E/NE 11.1
Ieri h: 16:50 sereno Sereno 31 12 31 1014 10 E/SE 7.4
Ieri h: 16:20 sereno Sereno 31 12 31 1015 10 N 5.5
Ieri h: 15:50 sereno Sereno 31 12 31 1015 10 N 3.7
Ieri h: 15:20 sereno Sereno 31 13 33 1015 10 N 9.3
Ieri h: 14:50 sereno Sereno 31 11 29 1015 10 E/NE 13
Ieri h: 14:20 sereno Sereno 30 13 35 1015 10 N/NE 11.1
Ieri h: 13:50 sereno Sereno 30 11 30 1015 10 N/NE 13
Ieri h: 13:20 sereno Sereno 30 12 33 1016 10 E 13
Ieri h: 12:50 sereno Sereno 29 13 37 1016 10 E 13
Ieri h: 12:20 sereno Sereno 30 13 35 1016 10 E 14.8
Ieri h: 11:50 sereno Sereno 29 13 37 1016 10 E 13
Ieri h: 11:20 sereno Sereno 29 12 35 1017 10 E/NE 14.8
Ieri h: 10:50 sereno Sereno 29 13 37 1017 10 E/NE 14.8
Ieri h: 10:20 sereno Sereno 28 14 42 1017 10 NE 13
Ieri h: 09:50 sereno Sereno 28 15 45 1017 10 N/NE 11.1
Ieri h: 09:20 sereno Sereno 27 16 50 1017 10 N/NE 9.3
Ieri h: 08:50 sereno Sereno 26 15 50 1017 10 N 7.4
Ieri h: 08:20 sereno Sereno 25 16 57 1017 10 N 5.5
Ieri h: 07:50 sereno Sereno 24 16 60 1017 10 N 7.4
Ieri h: 07:20 sereno Sereno 24 16 60 1017 10 N 5.5
Ieri h: 06:50 molto_nuvoloso Molto Nuvoloso 23 16 64 1017 10 N 5.5
Ieri h: 06:20 molto_nuvoloso Molto Nuvoloso 22 15 64 1017 10 N 5.5
Ieri h: 05:50 poco_nuvoloso Poco Nuvoloso 22 15 64 1017 10 N 7.4
Ieri h: 05:20 sereno Sereno 22 15 64 1017 10 N/NE 7.4
Ieri h: 04:50 sereno Sereno 22 16 68 1017 10 N 9.3
Ieri h: 04:20 sereno Sereno 22 16 68 1017 10 N 9.3
Ieri h: 03:50 sereno Sereno 22 16 68 1017 10 N 7.4
Ieri h: 03:20 poco_nuvoloso Poco Nuvoloso 23 16 64 1017 10 N 7.4
Ieri h: 02:50 poco_nuvoloso Poco Nuvoloso 23 17 68 1017 10 N 5.5
Ieri h: 02:20 nuvoloso Nuvoloso 22 17 73 1017 10 N 3.7
Ieri h: 01:50 molto_nuvoloso Molto Nuvoloso 23 17 68 1017 10 N 3.7